Time;durP1;ratioP1;P1;durP2;ratioP2;P2;SDS_P1;SDS_P2;PMS_P1;PMS_P2;Temp;Humidity;BMP_temperature;BMP_pressure;BME280_temperature;BME280_humidity;BME280_pressure;Samples;Min_cycle;Max_cycle;Signal;HPM_P1;HPM_P2
2022/10/16 00:00:57;;;;;;;0.80;0.80;;;-17.00;99.90;;;;;;5055553;28;20188;-87
2022/10/16 00:03:23;;;;;;;3.33;0.87;;;-17.20;99.90;;;;;;5038096;28;20275;-74
2022/10/16 00:05:49;;;;;;;1.13;0.93;;;-20.80;99.90;;;;;;5020584;28;20181;-84
2022/10/16 00:08:15;;;;;;;1.50;0.90;;;-22.60;99.90;;;;;;5029201;28;20177;-78
2022/10/16 00:10:41;;;;;;;0.73;0.60;;;-24.90;99.90;;;;;;5032349;28;20234;-76
2022/10/16 00:13:07;;;;;;;1.30;0.80;;;-23.70;99.90;;;;;;5039971;28;20296;-81
2022/10/16 00:15:38;;;;;;;2.17;0.97;;;-22.40;99.90;;;;;;5035966;28;20184;-77
2022/10/16 00:18:05;;;;;;;0.63;0.40;;;-24.00;99.90;;;;;;5041032;28;20268;-82
2022/10/16 00:20:34;;;;;;;1.17;0.70;;;-24.50;99.90;;;;;;5022960;28;20173;-74
2022/10/16 00:23:00;;;;;;;0.70;0.70;;;-19.90;99.90;;;;;;5029352;28;20596;-83
2022/10/16 00:25:26;;;;;;;2.07;0.90;;;-23.70;99.90;;;;;;5027212;28;20187;-81
2022/10/16 00:27:51;;;;;;;3.70;1.57;;;-21.00;99.90;;;;;;5034482;28;20181;-71
2022/10/16 00:30:17;;;;;;;2.03;1.00;;;-24.40;99.90;;;;;;5026567;28;20220;-75
2022/10/16 00:32:44;;;;;;;0.97;0.80;;;-18.90;99.90;;;;;;5033204;28;20193;-85
2022/10/16 00:35:09;;;;;;;2.90;0.70;;;-17.90;99.90;;;;;;5031867;28;20185;-71
2022/10/16 00:37:35;;;;;;;1.80;0.80;;;-19.20;99.90;;;;;;5034702;28;20180;-73
2022/10/16 00:40:01;;;;;;;3.10;1.10;;;-19.00;99.90;;;;;;5050049;28;20188;-83
2022/10/16 00:42:27;;;;;;;2.30;1.30;;;-23.90;99.90;;;;;;5019279;28;20188;-77
2022/10/16 00:44:57;;;;;;;1.03;0.93;;;-24.50;99.90;;;;;;5027397;28;20185;-82
2022/10/16 00:47:30;;;;;;;1.00;0.93;;;-24.90;99.90;;;;;;5036411;28;20177;-83
2022/10/16 00:50:06;;;;;;;2.00;1.17;;;-15.90;99.90;;;;;;5030513;28;20175;-76
2022/10/16 00:52:32;;;;;;;5.17;0.90;;;-17.00;99.90;;;;;;5033769;28;20311;-76
2022/10/16 00:54:59;;;;;;;5.43;0.90;;;-21.80;99.90;;;;;;5023286;28;20289;-79
2022/10/16 00:57:25;;;;;;;1.60;0.87;;;-15.90;99.90;;;;;;5028111;28;20196;-74
2022/10/16 00:59:52;;;;;;;2.67;1.00;;;-17.00;99.90;;;;;;5027744;28;21090;-74
2022/10/16 01:02:18;;;;;;;1.47;0.93;;;-20.50;99.90;;;;;;5021926;28;20191;-78
2022/10/16 01:04:48;;;;;;;2.13;0.80;;;-23.00;99.90;;;;;;5028394;28;20479;-71
2022/10/16 01:07:42;;;;;;;4.27;0.83;;;-20.50;99.90;;;;;;5025630;28;20212;-84
2022/10/16 01:10:08;;;;;;;1.40;0.83;;;-16.20;99.90;;;;;;5023970;28;20500;-75
2022/10/16 01:12:53;;;;;;;0.57;0.57;;;-20.40;99.90;;;;;;5027407;28;20353;-71
2022/10/16 01:15:22;;;;;;;1.13;0.80;;;-19.80;99.90;;;;;;5031717;28;20185;-86
2022/10/16 01:17:51;;;;;;;1.23;0.87;;;-18.30;99.90;;;;;;5017929;28;20181;-84
2022/10/16 01:20:24;;;;;;;2.10;1.10;;;-17.10;99.90;;;;;;5027486;28;20185;-80
2022/10/16 01:23:10;;;;;;;1.80;1.43;;;-17.90;99.90;;;;;;5041266;28;20491;-69
2022/10/16 01:25:48;;;;;;;3.10;1.40;;;-21.10;99.90;;;;;;5018281;28;20192;-69
2022/10/16 01:28:18;;;;;;;0.40;0.40;;;-18.10;99.90;;;;;;5025302;28;20188;-75
2022/10/16 01:30:46;;;;;;;9.97;1.33;;;-17.90;99.90;;;;;;5023087;28;20220;-72
2022/10/16 01:33:27;;;;;;;1.30;0.80;;;-17.00;99.90;;;;;;5025510;28;20215;-73
2022/10/16 01:35:58;;;;;;;1.23;1.13;;;-18.60;99.90;;;;;;5026460;28;20724;-73
2022/10/16 01:38:33;;;;;;;1.33;1.23;;;-15.60;99.90;;;;;;5038257;28;20179;-87
2022/10/16 01:41:04;;;;;;;1.07;0.93;;;-17.20;99.90;;;;;;5031055;28;20230;-78
2022/10/16 01:44:11;;;;;;;5.23;1.10;;;-18.60;99.90;;;;;;5035709;28;20188;-77
2022/10/16 01:46:40;;;;;;;5.27;1.37;;;-17.80;99.90;;;;;;4992829;28;20193;-76
2022/10/16 01:49:10;;;;;;;1.30;1.20;;;-19.80;99.90;;;;;;5001631;28;20249;-81
2022/10/16 01:51:37;;;;;;;4.67;1.40;;;-19.90;99.90;;;;;;5016524;28;20298;-70
2022/10/16 01:54:06;;;;;;;0.90;0.90;;;-20.40;99.90;;;;;;5025941;28;20207;-81
2022/10/16 01:56:33;;;;;;;1.90;0.97;;;-18.20;99.90;;;;;;5030865;28;20262;-81
2022/10/16 01:59:03;;;;;;;2.00;1.37;;;-22.30;99.90;;;;;;5029027;28;20173;-77
2022/10/16 02:01:33;;;;;;;1.20;1.10;;;-20.50;99.90;;;;;;5028049;28;20600;-81
2022/10/16 02:04:05;;;;;;;3.50;1.27;;;-18.50;99.90;;;;;;5039670;28;20256;-84
2022/10/16 02:06:31;;;;;;;5.33;1.33;;;-19.60;99.90;;;;;;5031189;28;20682;-84
2022/10/16 02:08:58;;;;;;;1.30;1.20;;;-17.30;99.90;;;;;;5029998;28;20176;-84
2022/10/16 02:11:24;;;;;;;1.80;0.77;;;-20.50;99.90;;;;;;5029157;28;20183;-78
2022/10/16 02:14:01;;;;;;;5.47;1.23;;;-17.60;99.90;;;;;;5024057;28;20492;-81
2022/10/16 02:16:38;;;;;;;2.23;1.67;;;-17.40;99.90;;;;;;5041367;28;20537;-83
2022/10/16 02:19:05;;;;;;;1.20;1.10;;;-17.50;99.90;;;;;;5021712;28;20188;-83
2022/10/16 02:21:53;;;;;;;3.57;1.87;;;-19.30;99.90;;;;;;5024111;28;20173;-76
2022/10/16 02:24:31;;;;;;;1.53;1.43;;;-19.50;99.90;;;;;;5024996;28;20172;-80
2022/10/16 02:27:23;;;;;;;1.40;1.30;;;-19.10;99.90;;;;;;5019273;28;20188;-74
2022/10/16 02:29:58;;;;;;;1.30;1.20;;;-16.30;99.90;;;;;;5004522;28;20615;-69
2022/10/16 02:32:30;;;;;;;4.13;1.53;;;-17.10;99.90;;;;;;5026285;28;20192;-85
2022/10/16 02:34:57;;;;;;;3.57;1.37;;;-21.90;99.90;;;;;;5036187;28;20282;-80
2022/10/16 02:37:24;;;;;;;1.97;1.43;;;-20.50;99.90;;;;;;5021888;28;20177;-79
2022/10/16 02:39:50;;;;;;;3.07;1.33;;;-23.50;99.90;;;;;;5033190;28;20207;-83
2022/10/16 02:42:18;;;;;;;2.33;1.27;;;-23.30;99.90;;;;;;5041300;28;20181;-86
2022/10/16 02:44:44;;;;;;;2.83;1.40;;;-19.20;99.90;;;;;;5035125;28;20598;-77
2022/10/16 02:47:10;;;;;;;8.13;1.80;;;-17.00;99.90;;;;;;5027270;28;20254;-73
2022/10/16 02:49:35;;;;;;;1.40;1.30;;;-19.40;99.90;;;;;;5026062;28;20592;-73
2022/10/16 02:52:01;;;;;;;1.83;1.40;;;-17.10;99.90;;;;;;5036787;28;20277;-69
2022/10/16 02:54:27;;;;;;;1.57;1.23;;;-16.60;99.90;;;;;;5035159;28;20257;-78
2022/10/16 02:56:53;;;;;;;1.93;1.73;;;-15.20;99.90;;;;;;5039258;28;20171;-70
2022/10/16 02:59:18;;;;;;;4.40;1.40;;;-17.10;99.90;;;;;;5028720;28;20184;-70
2022/10/16 03:01:44;;;;;;;4.87;1.50;;;-17.60;99.90;;;;;;5028053;28;20183;-85
2022/10/16 03:04:10;;;;;;;5.17;1.20;;;-18.80;99.90;;;;;;5034336;28;20276;-79
2022/10/16 03:06:35;;;;;;;2.27;1.70;;;-20.90;99.90;;;;;;5022304;28;20270;-87
2022/10/16 03:09:01;;;;;;;2.17;1.10;;;-22.20;99.90;;;;;;5034000;28;20188;-84
2022/10/16 03:11:28;;;;;;;2.13;1.60;;;-22.50;99.90;;;;;;5027651;28;20189;-85
2022/10/16 03:13:53;;;;;;;1.60;1.50;;;-19.80;99.90;;;;;;5021348;28;20251;-80
2022/10/16 03:16:19;;;;;;;5.77;1.97;;;-18.00;99.90;;;;;;5027497;28;20607;-83
2022/10/16 03:18:49;;;;;;;2.40;1.40;;;-16.80;99.90;;;;;;5031964;28;20579;-82
2022/10/16 03:21:15;;;;;;;1.90;1.47;;;-15.80;99.90;;;;;;5043765;28;20183;-79
2022/10/16 03:23:41;;;;;;;4.63;1.93;;;-16.80;99.90;;;;;;5040154;28;20187;-83
2022/10/16 03:26:06;;;;;;;3.23;2.27;;;-19.70;99.90;;;;;;5032661;28;20180;-87
2022/10/16 03:28:32;;;;;;;1.17;1.00;;;-19.20;99.90;;;;;;5027122;28;20191;-87
2022/10/16 03:30:58;;;;;;;2.37;1.83;;;-19.40;99.90;;;;;;5026814;28;20186;-83
2022/10/16 03:33:23;;;;;;;1.83;1.73;;;-21.50;99.90;;;;;;5042113;28;20212;-82
2022/10/16 03:35:54;;;;;;;1.73;1.63;;;-19.10;99.90;;;;;;5027452;28;20180;-81
2022/10/16 03:38:21;;;;;;;1.83;1.57;;;-18.50;99.90;;;;;;5035239;28;20184;-83
2022/10/16 03:40:47;;;;;;;2.27;1.60;;;-19.80;99.90;;;;;;5038856;28;20460;-83
2022/10/16 03:43:12;;;;;;;3.37;2.27;;;-18.70;99.90;;;;;;5032836;28;20275;-84
2022/10/16 03:45:38;;;;;;;1.63;1.40;;;-20.00;99.90;;;;;;5033963;28;20263;-84
2022/10/16 03:48:04;;;;;;;2.53;1.20;;;-19.70;99.90;;;;;;5036426;28;20255;-82
2022/10/16 03:50:30;;;;;;;1.83;1.70;;;-17.00;99.90;;;;;;5025503;28;20180;-83
2022/10/16 03:52:55;;;;;;;1.60;1.50;;;-17.40;99.90;;;;;;5040374;28;20180;-71
2022/10/16 03:55:21;;;;;;;1.87;1.67;;;-18.50;99.90;;;;;;5036430;28;20169;-78
2022/10/16 03:57:47;;;;;;;2.07;1.57;;;-20.40;99.90;;;;;;5034528;28;20185;-75
2022/10/16 04:00:13;;;;;;;5.20;1.27;;;-24.10;99.90;;;;;;5033208;28;20184;-73
2022/10/16 04:02:39;;;;;;;2.90;1.90;;;-20.20;99.90;;;;;;5028975;28;20188;-69
2022/10/16 04:05:05;;;;;;;2.43;1.80;;;-19.30;99.90;;;;;;5048434;28;20195;-69
2022/10/16 04:07:31;;;;;;;5.47;1.63;;;-17.40;99.90;;;;;;5032516;28;20185;-69
2022/10/16 04:09:58;;;;;;;2.07;1.50;;;-17.60;99.90;;;;;;5022099;28;20597;-69
2022/10/16 04:12:25;;;;;;;6.90;1.67;;;-18.20;99.90;;;;;;5023432;28;20242;-71
2022/10/16 04:14:50;;;;;;;4.40;1.67;;;-20.70;99.90;;;;;;5020296;28;20213;-69
2022/10/16 04:17:16;;;;;;;2.00;1.90;;;-19.10;99.90;;;;;;5037518;28;20188;-72
2022/10/16 04:19:42;;;;;;;1.77;1.30;;;-17.00;99.90;;;;;;5035210;28;20181;-73
2022/10/16 04:22:08;;;;;;;2.20;1.77;;;-18.80;99.90;;;;;;5036965;28;20210;-68
2022/10/16 04:24:34;;;;;;;2.77;1.80;;;-19.30;99.90;;;;;;5048822;28;20197;-71
2022/10/16 04:27:00;;;;;;;2.67;2.00;;;-19.30;99.90;;;;;;5041069;28;20203;-72
2022/10/16 04:29:25;;;;;;;3.97;1.53;;;-17.10;99.90;;;;;;5035401;28;20187;-70
2022/10/16 04:31:51;;;;;;;2.33;1.37;;;-17.50;99.90;;;;;;5027302;28;20184;-70
2022/10/16 04:34:17;;;;;;;2.40;1.97;;;-16.20;99.90;;;;;;5037989;28;20208;-71
2022/10/16 04:36:42;;;;;;;4.00;1.93;;;-17.80;99.90;;;;;;5032963;28;20251;-73
2022/10/16 04:39:08;;;;;;;2.70;2.17;;;-17.60;99.90;;;;;;5052907;28;20210;-70
2022/10/16 04:41:34;;;;;;;2.10;1.60;;;-16.80;99.90;;;;;;5037459;28;20187;-69
2022/10/16 04:44:00;;;;;;;1.63;1.40;;;-20.10;99.90;;;;;;5020034;28;20225;-71
2022/10/16 04:46:25;;;;;;;5.43;1.80;;;-20.80;99.90;;;;;;5018305;28;20196;-69
2022/10/16 04:48:51;;;;;;;4.03;1.80;;;-19.90;99.90;;;;;;5019851;28;20212;-71
2022/10/16 04:51:18;;;;;;;5.23;1.80;;;-16.30;99.90;;;;;;5018549;28;20200;-71
2022/10/16 04:53:44;;;;;;;1.43;1.30;;;-15.00;99.90;;;;;;5042388;28;20280;-70
2022/10/16 04:56:10;;;;;;;2.33;1.87;;;-17.50;99.90;;;;;;5032310;28;20263;-71
2022/10/16 04:58:35;;;;;;;2.13;1.63;;;-18.80;99.90;;;;;;5026539;28;20271;-70
2022/10/16 05:01:01;;;;;;;1.90;1.80;;;-21.80;99.90;;;;;;5036919;28;20202;-69
2022/10/16 05:03:27;;;;;;;2.67;1.87;;;-24.00;99.90;;;;;;5038776;28;20191;-82
2022/10/16 05:05:53;;;;;;;2.27;1.60;;;-20.40;99.90;;;;;;5026377;28;20193;-80
2022/10/16 05:08:18;;;;;;;2.07;1.60;;;-18.50;99.90;;;;;;5028181;28;20223;-69
2022/10/16 05:10:45;;;;;;;3.07;1.67;;;-18.80;99.90;;;;;;5025624;28;20267;-74
2022/10/16 05:13:11;;;;;;;7.03;2.63;;;-20.00;99.90;;;;;;5025629;28;20211;-75
2022/10/16 05:15:37;;;;;;;1.60;1.30;;;-18.10;99.90;;;;;;5021830;28;20210;-70
2022/10/16 05:18:03;;;;;;;2.10;1.73;;;-22.90;99.90;;;;;;5029206;28;20320;-69
2022/10/16 05:20:29;;;;;;;2.87;2.10;;;-19.50;99.90;;;;;;5030084;28;20188;-70
2022/10/16 05:22:55;;;;;;;1.87;1.60;;;-22.40;99.90;;;;;;5034453;28;20195;-72
2022/10/16 05:25:20;;;;;;;2.23;1.40;;;-20.10;99.90;;;;;;5033350;28;20266;-79
2022/10/16 05:27:50;;;;;;;6.57;1.47;;;-23.00;99.90;;;;;;5032714;28;20173;-74
2022/10/16 05:30:16;;;;;;;4.13;2.03;;;-21.90;99.90;;;;;;5032537;28;20180;-69
2022/10/16 05:32:47;;;;;;;4.10;1.87;;;-19.20;99.90;;;;;;5030890;28;20189;-71
2022/10/16 05:35:13;;;;;;;3.43;2.43;;;-18.20;99.90;;;;;;5036051;28;20181;-81
2022/10/16 05:37:39;;;;;;;2.50;1.97;;;-21.00;99.90;;;;;;5032212;28;20183;-79
2022/10/16 05:40:05;;;;;;;3.80;1.80;;;-18.70;99.90;;;;;;5035011;28;20181;-74
2022/10/16 05:42:31;;;;;;;2.17;1.87;;;-17.80;99.90;;;;;;5033682;28;20208;-77
2022/10/16 05:44:56;;;;;;;3.90;1.50;;;-18.00;99.90;;;;;;5033644;28;20258;-71
2022/10/16 05:47:22;;;;;;;6.60;1.90;;;-14.10;99.90;;;;;;5034052;28;20203;-82
2022/10/16 05:49:48;;;;;;;4.97;1.47;;;-19.20;99.90;;;;;;5032335;28;20259;-72
2022/10/16 05:52:14;;;;;;;4.77;2.27;;;-21.20;99.90;;;;;;5032409;28;20184;-74
2022/10/16 05:54:39;;;;;;;4.33;1.87;;;-20.60;99.90;;;;;;5032034;28;20208;-71
2022/10/16 05:57:05;;;;;;;2.60;2.00;;;-20.50;99.90;;;;;;5033056;28;20361;-70
2022/10/16 05:59:31;;;;;;;4.10;1.93;;;-19.90;99.90;;;;;;5034240;28;20213;-69
2022/10/16 06:01:57;;;;;;;2.30;1.87;;;-14.90;99.90;;;;;;5035531;28;20193;-82
2022/10/16 06:04:23;;;;;;;6.27;2.03;;;-16.50;99.90;;;;;;5030598;28;20183;-87
2022/10/16 06:06:49;;;;;;;2.37;2.13;;;-14.80;99.90;;;;;;5033211;28;20264;-71
2022/10/16 06:09:17;;;;;;;2.77;2.50;;;-15.10;99.90;;;;;;5046676;28;20184;-75
2022/10/16 06:11:42;;;;;;;3.53;2.50;;;-16.90;99.90;;;;;;5031942;28;20211;-70
2022/10/16 06:14:08;;;;;;;2.10;2.00;;;-17.80;99.90;;;;;;5031614;28;20213;-76
2022/10/16 06:16:35;;;;;;;3.00;1.97;;;-17.70;99.90;;;;;;5030679;28;20184;-69
2022/10/16 06:19:04;;;;;;;2.40;2.00;;;-20.10;99.90;;;;;;5029658;28;20267;-78
2022/10/16 06:21:30;;;;;;;2.90;2.17;;;-19.00;99.90;;;;;;5031871;28;20216;-74
2022/10/16 06:23:57;;;;;;;1.93;1.83;;;-18.50;99.90;;;;;;5031978;28;20207;-77
2022/10/16 06:26:26;;;;;;;1.87;1.77;;;-19.00;99.90;;;;;;5033079;28;20180;-71
2022/10/16 06:28:53;;;;;;;3.53;2.20;;;-16.80;99.90;;;;;;5030066;28;20239;-75
2022/10/16 06:31:19;;;;;;;5.90;1.90;;;-16.50;99.90;;;;;;5036016;28;20656;-80
2022/10/16 06:33:47;;;;;;;6.17;2.80;;;-15.70;99.90;;;;;;5047915;28;20205;-82
2022/10/16 06:36:16;;;;;;;4.03;1.90;;;-16.30;99.90;;;;;;5029350;28;20533;-69
2022/10/16 06:38:42;;;;;;;3.30;2.33;;;-17.00;99.90;;;;;;5028769;28;20183;-69
2022/10/16 06:41:14;;;;;;;4.47;2.20;;;-16.70;99.90;;;;;;5049733;28;20273;-71
2022/10/16 06:43:40;;;;;;;3.53;1.67;;;-14.70;99.90;;;;;;5034848;28;20184;-80
2022/10/16 06:46:08;;;;;;;3.97;2.20;;;-17.10;99.90;;;;;;5035225;28;20184;-73
2022/10/16 06:48:34;;;;;;;6.23;2.47;;;-16.90;99.90;;;;;;5034611;28;20233;-67
2022/10/16 06:51:12;;;;;;;3.17;1.77;;;-18.00;99.90;;;;;;5027870;28;20604;-71
2022/10/16 06:53:40;;;;;;;4.77;2.37;;;-18.40;99.90;;;;;;5024514;28;20231;-73
2022/10/16 06:56:14;;;;;;;4.23;1.97;;;-17.00;99.90;;;;;;5034051;28;20180;-70
2022/10/16 06:58:41;;;;;;;15.87;2.33;;;-18.30;99.90;;;;;;5033236;28;20184;-75
2022/10/16 07:01:07;;;;;;;6.00;1.90;;;-17.80;99.90;;;;;;5023740;28;20205;-75
2022/10/16 07:03:35;;;;;;;5.93;1.67;;;-14.20;99.90;;;;;;5030199;28;20184;-76
2022/10/16 07:06:06;;;;;;;2.77;1.77;;;-13.00;99.90;;;;;;5029918;28;20199;-78
2022/10/16 07:08:33;;;;;;;4.83;1.93;;;-16.50;99.90;;;;;;5034265;28;20630;-74
2022/10/16 07:11:04;;;;;;;2.30;1.57;;;-14.50;99.90;;;;;;5033735;28;20259;-70
2022/10/16 07:13:33;;;;;;;5.77;2.30;;;-15.40;99.90;;;;;;5034138;28;20564;-70
2022/10/16 07:16:08;;;;;;;3.63;2.70;;;-15.60;99.90;;;;;;5018868;28;20186;-68
2022/10/16 07:18:34;;;;;;;3.23;1.87;;;-22.50;99.90;;;;;;5021989;28;20188;-72
2022/10/16 07:21:08;;;;;;;4.03;2.30;;;-18.80;99.90;;;;;;5033913;28;20253;-73
2022/10/16 07:23:34;;;;;;;3.53;1.67;;;-19.50;99.90;;;;;;5040092;28;20203;-72
2022/10/16 07:26:00;;;;;;;1.80;1.70;;;-20.80;99.90;;;;;;5035905;28;20702;-69
2022/10/16 07:28:26;;;;;;;1.97;1.30;;;-17.30;99.90;;;;;;5038054;28;20192;-70
2022/10/16 07:30:52;;;;;;;1.50;1.40;;;-18.30;99.90;;;;;;5032525;28;20202;-79
2022/10/16 07:33:18;;;;;;;2.30;2.03;;;-18.50;99.90;;;;;;5037267;28;20197;-79
2022/10/16 07:35:54;;;;;;;2.17;1.70;;;-19.50;99.90;;;;;;5037043;28;20253;-74
2022/10/16 07:38:21;;;;;;;3.53;2.10;;;-16.90;99.90;;;;;;5035086;28;20177;-70
2022/10/16 07:40:47;;;;;;;2.90;1.20;;;-17.80;99.90;;;;;;5034348;28;20173;-79
2022/10/16 07:43:14;;;;;;;3.30;1.70;;;-19.10;99.90;;;;;;5037221;28;20184;-81
2022/10/16 07:45:50;;;;;;;1.87;1.67;;;-20.30;99.90;;;;;;5035486;28;20188;-75
2022/10/16 07:48:17;;;;;;;1.77;1.60;;;-18.40;99.90;;;;;;5034037;28;20198;-79
2022/10/16 07:50:43;;;;;;;2.37;1.73;;;-17.40;99.90;;;;;;5036988;28;20212;-83
2022/10/16 07:53:09;;;;;;;3.40;1.80;;;-17.20;99.90;;;;;;5035258;28;20215;-81
2022/10/16 07:55:35;;;;;;;3.50;2.17;;;-15.70;99.90;;;;;;5033692;28;20176;-76
2022/10/16 07:58:01;;;;;;;4.27;2.53;;;-19.90;99.90;;;;;;5033041;28;20184;-80
2022/10/16 08:00:26;;;;;;;2.57;1.80;;;-17.10;99.90;;;;;;5036068;28;20224;-80
2022/10/16 08:02:52;;;;;;;4.50;2.03;;;-17.10;99.90;;;;;;5035757;28;20187;-78
2022/10/16 08:05:18;;;;;;;4.00;2.00;;;-14.90;99.90;;;;;;5035172;28;20203;-82
2022/10/16 08:07:49;;;;;;;3.77;2.20;;;-18.50;99.90;;;;;;5036820;28;20658;-72
2022/10/16 08:10:20;;;;;;;2.97;1.73;;;-23.70;99.90;;;;;;5032787;28;20612;-86
2022/10/16 08:12:46;;;;;;;2.07;1.13;;;-23.90;99.90;;;;;;5035550;28;20188;-78
2022/10/16 08:15:12;;;;;;;3.13;1.23;;;-20.20;99.90;;;;;;5033533;28;20195;-86
2022/10/16 08:17:38;;;;;;;2.30;1.70;;;-19.70;99.90;;;;;;5031355;28;20192;-77
2022/10/16 08:20:04;;;;;;;3.60;1.60;;;-22.80;99.90;;;;;;5036346;28;20235;-73
2022/10/16 08:22:31;;;;;;;6.27;1.60;;;-20.40;99.90;;;;;;5034545;28;20196;-83
2022/10/16 08:24:57;;;;;;;1.57;1.13;;;-16.90;99.90;;;;;;5037123;28;20185;-76
2022/10/16 08:27:22;;;;;;;6.23;1.73;;;-20.40;99.90;;;;;;5032071;28;20165;-77
2022/10/16 08:29:51;;;;;;;3.17;1.60;;;-18.50;99.90;;;;;;5034193;28;20455;-84
2022/10/16 08:32:16;;;;;;;4.70;1.77;;;-18.80;99.90;;;;;;5035394;28;20311;-69
2022/10/16 08:34:42;;;;;;;3.80;1.43;;;-16.60;99.90;;;;;;5034208;28;20284;-77
2022/10/16 08:37:11;;;;;;;6.17;1.53;;;-15.70;99.90;;;;;;5031739;28;20236;-79
2022/10/16 08:39:37;;;;;;;2.80;1.57;;;-16.00;99.90;;;;;;5034439;28;20263;-80
2022/10/16 08:42:30;;;;;;;4.53;1.50;;;-16.50;99.90;;;;;;5049000;28;20185;-76
2022/10/16 08:44:58;;;;;;;3.17;1.43;;;-20.40;99.90;;;;;;5042812;28;20587;-78
2022/10/16 08:47:26;;;;;;;4.00;1.70;;;-27.30;99.90;;;;;;5043003;28;20184;-76
2022/10/16 08:50:00;;;;;;;2.47;1.60;;;-25.80;99.90;;;;;;5033679;28;20269;-70
2022/10/16 08:52:33;;;;;;;2.70;1.10;;;-25.40;99.90;;;;;;5033121;28;20193;-70
2022/10/16 08:54:59;;;;;;;5.40;1.30;;;-21.50;99.90;;;;;;5023335;28;20522;-80
2022/10/16 08:57:26;;;;;;;3.90;1.47;;;-23.00;99.90;;;;;;5028730;28;20170;-76
2022/10/16 08:59:59;;;;;;;6.37;1.93;;;-18.70;99.90;;;;;;5018422;28;20196;-71
2022/10/16 09:02:34;;;;;;;2.93;1.80;;;-19.60;99.90;;;;;;5021393;28;20282;-75
2022/10/16 09:05:35;;;;;;;3.17;1.50;;;-20.20;99.90;;;;;;5018167;28;20188;-86
2022/10/16 09:08:09;;;;;;;8.23;1.73;;;-24.80;99.90;;;;;;5022726;28;20176;-83
2022/10/16 09:10:55;;;;;;;3.80;2.03;;;-19.10;99.90;;;;;;5022769;28;20181;-82
2022/10/16 09:13:50;;;;;;;5.37;1.30;;;-23.10;99.90;;;;;;5028632;28;20227;-84
2022/10/16 09:16:42;;;;;;;2.83;1.20;;;-25.60;99.90;;;;;;5024143;28;20181;-83
2022/10/16 09:19:08;;;;;;;7.10;1.40;;;-19.40;99.90;;;;;;5031615;28;20185;-83
2022/10/16 09:21:40;;;;;;;3.13;1.50;;;-19.50;99.90;;;;;;5028025;28;20230;-83
2022/10/16 09:24:18;;;;;;;2.97;1.87;;;-22.00;99.90;;;;;;5028486;28;20220;-80
2022/10/16 09:26:45;;;;;;;3.43;1.57;;;-22.30;99.90;;;;;;5026668;28;20546;-80
2022/10/16 09:29:17;;;;;;;2.03;1.30;;;-25.40;99.90;;;;;;5028055;28;20229;-82
2022/10/16 09:31:43;;;;;;;5.13;1.70;;;-26.80;99.90;;;;;;5025201;28;20527;-80
2022/10/16 09:34:36;;;;;;;4.70;1.20;;;-23.60;99.90;;;;;;5025866;28;20205;-81
2022/10/16 09:37:13;;;;;;;4.20;2.03;;;-18.10;99.90;;;;;;5032817;28;20275;-81
2022/10/16 09:39:52;;;;;;;5.57;1.30;;;-16.70;99.90;;;;;;5031116;28;20176;-77
2022/10/16 09:42:31;;;;;;;10.20;1.93;;;-16.40;99.90;;;;;;5028794;28;20235;-77
2022/10/16 09:44:57;;;;;;;3.17;0.93;;;-18.00;99.90;;;;;;5032322;28;20172;-81
2022/10/16 09:47:25;;;;;;;2.33;1.53;;;-19.10;99.90;;;;;;5024439;28;20253;-82
2022/10/16 09:49:57;;;;;;;4.27;1.60;;;-23.50;99.90;;;;;;5035033;28;20192;-80
2022/10/16 09:52:24;;;;;;;3.00;1.43;;;-22.50;99.90;;;;;;5018450;28;20181;-77
2022/10/16 09:54:55;;;;;;;2.63;1.20;;;-25.90;99.90;;;;;;5028101;28;20213;-80
2022/10/16 09:57:22;;;;;;;3.53;1.13;;;-22.90;99.90;;;;;;5035386;28;20596;-81
2022/10/16 09:59:49;;;;;;;2.80;1.03;;;-22.00;99.90;;;;;;5025313;28;20631;-79
2022/10/16 10:02:19;;;;;;;2.87;1.10;;;-24.10;99.90;;;;;;5030295;28;20230;-78
2022/10/16 10:04:51;;;;;;;3.63;1.33;;;-25.40;99.90;;;;;;5030552;28;20289;-69
2022/10/16 10:07:42;;;;;;;4.37;1.30;;;-32.10;99.90;;;;;;5033552;28;20192;-79
2022/10/16 10:10:26;;;;;;;4.77;1.43;;;-28.00;99.90;;;;;;5031394;28;20639;-75
2022/10/16 10:12:53;;;;;;;4.83;1.23;;;-30.60;99.90;;;;;;5029566;28;20185;-80
2022/10/16 10:15:23;;;;;;;4.43;1.00;;;-28.90;99.90;;;;;;5032323;28;20188;-78
2022/10/16 10:17:52;;;;;;;1.90;0.97;;;-31.70;99.90;;;;;;5043058;28;20644;-79
2022/10/16 10:20:34;;;;;;;2.03;1.37;;;-32.00;99.90;;;;;;5035101;28;20180;-78
2022/10/16 10:23:18;;;;;;;7.70;3.87;;;-40.00;99.90;;;;;;5033820;28;20191;-75
2022/10/16 10:26:05;;;;;;;2.83;1.27;;;-30.80;99.90;;;;;;5032017;28;20234;-79
2022/10/16 10:28:49;;;;;;;1.83;0.90;;;-40.00;99.90;;;;;;5034561;28;20303;-71
2022/10/16 10:31:31;;;;;;;2.90;1.40;;;-39.60;99.90;;;;;;5028901;28;20230;-68
2022/10/16 10:34:30;;;;;;;1.80;1.20;;;-40.00;99.90;;;;;;5021448;28;20244;-73
2022/10/16 10:37:06;;;;;;;16.57;1.33;;;-34.40;99.90;;;;;;5019818;28;20196;-73
2022/10/16 10:39:49;;;;;;;1.77;1.07;;;-27.50;99.90;;;;;;5025670;28;20175;-73
2022/10/16 10:42:53;;;;;;;4.47;1.80;;;-33.50;99.90;;;;;;5028579;28;20188;-76
2022/10/16 10:45:47;;;;;;;8.60;1.23;;;-33.90;99.90;;;;;;5020048;28;20196;-74
2022/10/16 10:48:51;;;;;;;13.07;3.23;;;-28.00;99.90;;;;;;5023861;28;20185;-76
2022/10/16 10:51:32;;;;;;;4.60;1.53;;;-32.60;99.90;;;;;;5031658;28;20215;-73
2022/10/16 10:54:00;;;;;;;4.97;1.47;;;-32.70;99.90;;;;;;5027550;28;20239;-78
2022/10/16 10:57:04;;;;;;;10.83;2.73;;;-28.60;99.90;;;;;;5038191;28;20246;-75
2022/10/16 10:59:30;;;;;;;1.83;1.10;;;-33.10;99.90;;;;;;5029133;28;20217;-77
2022/10/16 11:01:59;;;;;;;3.07;1.00;;;-27.30;99.90;;;;;;5036228;28;20220;-73
2022/10/16 11:04:34;;;;;;;4.60;1.30;;;-30.80;99.90;;;;;;5032710;28;20191;-76
2022/10/16 11:07:27;;;;;;;2.90;0.87;;;-26.70;99.90;;;;;;5038230;28;20188;-74
2022/10/16 11:10:03;;;;;;;3.60;1.30;;;-32.90;99.90;;;;;;5033462;28;20189;-71
2022/10/16 11:12:35;;;;;;;4.13;1.27;;;-24.40;99.90;;;;;;5033426;28;20628;-73
2022/10/16 11:15:23;;;;;;;3.50;0.83;;;18.50;99.90;;;;;;5034523;28;20478;-72
2022/10/16 11:17:55;;;;;;;2.33;0.77;;;18.50;99.90;;;;;;5033282;28;20197;-79
2022/10/16 11:20:25;;;;;;;3.57;1.90;;;18.50;99.90;;;;;;5036737;28;20580;-78
2022/10/16 11:22:59;;;;;;;4.67;0.83;;;-40.00;99.90;;;;;;5023385;28;20223;-81
2022/10/16 11:25:32;;;;;;;1.00;0.70;;;-40.00;98.90;;;;;;5030346;28;20192;-71
2022/10/16 11:28:24;;;;;;;0.97;0.97;;;-40.00;99.90;;;;;;5035418;28;20180;-74
2022/10/16 11:31:07;;;;;;;4.77;1.40;;;-40.00;98.80;;;;;;5033599;28;20181;-73
2022/10/16 11:33:40;;;;;;;4.23;1.07;;;-40.00;96.10;;;;;;5034172;28;20563;-79
2022/10/16 11:36:09;;;;;;;4.77;1.33;;;-40.00;96.90;;;;;;5036347;28;20753;-81
2022/10/16 11:39:06;;;;;;;3.30;1.27;;;-40.00;94.20;;;;;;5037579;28;20193;-74
2022/10/16 11:41:44;;;;;;;2.73;0.80;;;-40.00;92.10;;;;;;5035640;28;20180;-76
2022/10/16 11:44:25;;;;;;;2.70;1.10;;;-40.00;91.50;;;;;;5029895;28;20185;-72
2022/10/16 11:47:01;;;;;;;1.80;0.90;;;-40.00;90.60;;;;;;5036772;28;20192;-70
2022/10/16 11:49:31;;;;;;;4.00;1.03;;;-40.00;91.40;;;;;;5034803;28;20194;-73
2022/10/16 11:52:23;;;;;;;4.77;1.33;;;-40.00;92.20;;;;;;5019605;28;20185;-72
2022/10/16 11:54:57;;;;;;;2.57;0.77;;;-40.00;93.40;;;;;;5029868;28;20205;-71
2022/10/16 11:57:43;;;;;;;6.37;1.70;;;-40.00;94.40;;;;;;5043939;28;20188;-74
2022/10/16 12:00:27;;;;;;;2.60;1.20;;;-40.00;95.40;;;;;;5024337;28;20241;-73
2022/10/16 12:03:05;;;;;;;2.90;1.50;;;-40.00;94.70;;;;;;5032727;28;20184;-73
2022/10/16 12:05:50;;;;;;;6.10;1.93;;;19.80;99.90;;;;;;5031168;28;20197;-70
2022/10/16 12:08:17;;;;;;;3.37;1.87;;;19.70;99.90;;;;;;5023720;28;20201;-71
2022/10/16 12:10:46;;;;;;;3.27;1.10;;;19.90;99.90;;;;;;5037785;28;20238;-75
2022/10/16 12:13:38;;;;;;;1.43;0.67;;;20.00;99.90;;;;;;5022122;28;20264;-71
2022/10/16 12:16:05;;;;;;;3.07;0.57;;;20.10;99.90;;;;;;5022791;28;20297;-75
2022/10/16 12:18:31;;;;;;;7.27;1.23;;;20.20;99.90;;;;;;5037775;28;20469;-70
2022/10/16 12:21:07;;;;;;;4.93;1.20;;;20.00;99.90;;;;;;5037600;28;20181;-72
2022/10/16 12:23:37;;;;;;;6.90;1.97;;;20.00;99.90;;;;;;5030511;28;20184;-78
2022/10/16 12:26:04;;;;;;;3.50;1.50;;;19.80;99.90;;;;;;5019891;28;20192;-71
2022/10/16 12:28:32;;;;;;;3.77;1.47;;;19.80;99.90;;;;;;5023711;28;20183;-71
2022/10/16 12:31:04;;;;;;;4.23;0.90;;;19.80;99.90;;;;;;5037054;28;20188;-72
2022/10/16 12:34:01;;;;;;;2.13;0.50;;;20.10;99.90;;;;;;5037253;28;20212;-78
2022/10/16 12:36:34;;;;;;;3.30;1.40;;;-40.00;93.80;;;;;;5023608;28;20512;-77
2022/10/16 12:39:01;;;;;;;5.97;1.23;;;-40.00;92.90;;;;;;5022800;28;20195;-79
2022/10/16 12:41:35;;;;;;;3.70;1.03;;;-40.00;93.10;;;;;;5037255;28;20175;-74
2022/10/16 12:44:02;;;;;;;9.57;1.93;;;-40.00;93.70;;;;;;5025016;28;20195;-78
2022/10/16 12:46:32;;;;;;;3.33;1.17;;;-40.00;92.40;;;;;;5025804;28;20193;-79
2022/10/16 12:49:13;;;;;;;8.23;1.50;;;-40.00;92.50;;;;;;5027096;28;20188;-69
2022/10/16 12:51:41;;;;;;;4.80;1.20;;;-40.00;95.20;;;;;;5026463;28;20192;-70
2022/10/16 12:54:07;;;;;;;3.87;0.90;;;-40.00;95.90;;;;;;5036957;28;20212;-73
2022/10/16 12:57:08;;;;;;;1.70;1.17;;;-40.00;96.30;;;;;;5032396;28;20192;-70